Time;durP1;ratioP1;P1;durP2;ratioP2;P2;SDS_P1;SDS_P2;PMS_P1;PMS_P2;Temp;Humidity;BMP_temperature;BMP_pressure;BME280_temperature;BME280_humidity;BME280_pressure;Samples;Min_cycle;Max_cycle;Signal;HPM_P1;HPM_P2
2024/03/04 00:02:14;;;;;;;77.50;38.60;;;;;;;7.99;100.00;99747.64;214115;1285;140124;-86
2024/03/04 00:07:15;;;;;;;64.50;36.10;;;;;;;7.99;100.00;99750.99;214150;1287;140276;-86
2024/03/04 00:12:15;;;;;;;66.30;34.60;;;;;;;7.99;100.00;99750.30;213589;1292;139387;-86
2024/03/04 00:17:16;;;;;;;81.70;38.10;;;;;;;7.98;100.00;99751.63;213431;1288;140037;-86
2024/03/04 00:22:17;;;;;;;90.80;41.50;;;;;;;7.98;100.00;99748.58;214071;1288;139956;-86
2024/03/04 00:27:18;;;;;;;56.50;32.30;;;;;;;7.98;100.00;99744.10;213934;1288;139913;-85
2024/03/04 00:32:19;;;;;;;63.20;34.70;;;;;;;7.97;100.00;99739.24;214472;1285;139493;-86
2024/03/04 00:37:20;;;;;;;62.60;33.20;;;;;;;7.98;100.00;99742.93;213832;1288;140973;-87
2024/03/04 00:42:22;;;;;;;70.60;35.60;;;;;;;7.95;100.00;99743.84;214115;1288;139265;-86
2024/03/04 00:47:23;;;;;;;80.90;42.40;;;;;;;7.96;100.00;99745.34;213521;1285;140256;-86
2024/03/04 00:52:23;;;;;;;77.10;39.40;;;;;;;7.97;100.00;99742.98;213973;1288;139078;-86
2024/03/04 00:57:24;;;;;;;61.50;35.20;;;;;;;7.97;100.00;99745.89;214131;1286;139892;-86
2024/03/04 01:02:24;;;;;;;70.80;36.20;;;;;;;7.99;100.00;99748.04;214617;1287;138895;-86
2024/03/04 01:07:24;;;;;;;63.40;36.10;;;;;;;7.99;100.00;99748.04;214605;1287;140335;-86
2024/03/04 01:12:25;;;;;;;64.50;35.10;;;;;;;8.00;100.00;99744.98;214839;1288;138905;-86
2024/03/04 01:17:27;;;;;;;64.70;36.50;;;;;;;7.98;100.00;99749.05;214208;1288;140049;-86
2024/03/04 01:22:28;;;;;;;63.60;36.60;;;;;;;7.97;100.00;99752.95;214658;1286;139096;-86
2024/03/04 01:27:29;;;;;;;309.50;97.90;;;;;;;7.94;100.00;99747.05;214231;1288;140458;-86
2024/03/04 01:32:29;;;;;;;109.80;47.70;;;;;;;7.94;100.00;99751.11;214412;1288;139144;-85
2024/03/04 01:37:30;;;;;;;93.30;42.70;;;;;;;7.91;100.00;99750.36;213686;1288;141101;-86
2024/03/04 01:42:30;;;;;;;75.60;41.20;;;;;;;7.88;100.00;99753.24;214058;1286;138670;-85
2024/03/04 01:47:33;;;;;;;72.40;39.80;;;;;;;7.85;100.00;99755.23;213620;1287;140283;-87
2024/03/04 01:52:33;;;;;;;85.30;41.10;;;;;;;7.82;100.00;99754.73;214223;1284;138851;-85
2024/03/04 01:57:35;;;;;;;67.60;39.30;;;;;;;7.80;100.00;99757.53;213638;1286;140196;-86
2024/03/04 02:02:35;;;;;;;80.90;42.50;;;;;;;7.77;100.00;99758.05;213731;1290;139327;-85
2024/03/04 02:07:41;;;;;;;70.60;39.80;;;;;;;7.75;100.00;99756.77;213400;1286;140530;-84
2024/03/04 02:12:41;;;;;;;68.70;39.80;;;;;;;7.71;100.00;99757.04;214224;1290;138702;-86
2024/03/04 02:17:42;;;;;;;75.80;39.70;;;;;;;7.70;100.00;99761.86;213441;1290;140394;-85
2024/03/04 02:22:42;;;;;;;84.20;44.80;;;;;;;7.68;100.00;99758.56;213944;1285;139216;-85
2024/03/04 02:27:43;;;;;;;71.90;42.10;;;;;;;7.67;100.00;99759.34;213745;1286;140182;-85
2024/03/04 02:32:44;;;;;;;77.30;43.20;;;;;;;7.66;100.00;99758.63;214198;1287;138848;-86
2024/03/04 02:37:44;;;;;;;81.50;44.20;;;;;;;7.66;100.00;99765.81;213733;1285;139987;-85
2024/03/04 02:42:45;;;;;;;73.70;42.30;;;;;;;7.67;100.00;99769.27;214147;1288;138588;-86
2024/03/04 02:47:46;;;;;;;84.80;43.40;;;;;;;7.65;100.00;99768.55;213511;1287;140876;-85
2024/03/04 02:52:46;;;;;;;76.50;42.30;;;;;;;7.63;100.00;99769.54;213837;1290;138849;-86
2024/03/04 02:57:47;;;;;;;70.30;43.10;;;;;;;7.60;100.00;99773.56;213358;1288;140378;-86
2024/03/04 03:02:47;;;;;;;88.50;43.60;;;;;;;7.56;100.00;99778.20;214154;1286;138848;-85
2024/03/04 03:07:48;;;;;;;81.70;42.50;;;;;;;7.53;100.00;99779.59;213633;1286;140048;-86
2024/03/04 03:12:48;;;;;;;93.80;43.80;;;;;;;7.50;100.00;99783.92;215596;1288;138587;-85
2024/03/04 03:17:48;;;;;;;78.30;44.10;;;;;;;7.47;100.00;99784.73;213661;1288;140103;-87
2024/03/04 03:22:49;;;;;;;73.10;43.20;;;;;;;7.43;100.00;99782.34;214092;1286;139209;-85
2024/03/04 03:27:49;;;;;;;73.30;41.80;;;;;;;7.41;100.00;99784.11;213698;1285;140171;-87
2024/03/04 03:32:50;;;;;;;77.00;43.30;;;;;;;7.39;100.00;99786.83;213928;1285;138791;-87
2024/03/04 03:37:50;;;;;;;87.70;45.20;;;;;;;7.35;100.00;99788.81;213550;1288;140963;-86
2024/03/04 03:42:51;;;;;;;79.10;44.40;;;;;;;7.33;100.00;99787.05;214082;1286;140479;-85
2024/03/04 03:47:51;;;;;;;78.70;42.60;;;;;;;7.31;100.00;99791.17;213715;1288;140526;-86
2024/03/04 03:52:52;;;;;;;80.10;44.00;;;;;;;7.28;100.00;99785.90;214029;1288;138878;-86
2024/03/04 03:57:52;;;;;;;88.70;45.60;;;;;;;7.25;100.00;99789.52;213421;1288;140809;-86
2024/03/04 04:02:53;;;;;;;81.80;44.40;;;;;;;7.21;100.00;99793.15;213559;1285;138956;-86
2024/03/04 04:07:53;;;;;;;74.60;43.00;;;;;;;7.16;100.00;99794.94;213582;1288;140097;-85
2024/03/04 04:12:53;;;;;;;81.00;43.90;;;;;;;7.09;100.00;99792.02;214368;1288;99282;-86
2024/03/04 04:17:54;;;;;;;100.10;47.50;;;;;;;7.02;100.00;99795.84;214089;1285;139125;-86
2024/03/04 04:22:54;;;;;;;138.90;54.50;;;;;;;6.95;100.00;99801.20;214136;1289;139484;-86
2024/03/04 04:27:55;;;;;;;104.70;50.80;;;;;;;6.87;100.00;99801.70;213393;1288;140291;-86
2024/03/04 04:32:56;;;;;;;139.70;55.60;;;;;;;6.81;100.00;99806.61;214183;1288;138956;-84
2024/03/04 04:37:56;;;;;;;108.80;47.50;;;;;;;6.75;100.00;99815.80;213600;1286;140601;-84
2024/03/04 04:42:58;;;;;;;110.20;50.10;;;;;;;6.70;100.00;99820.33;214180;1288;98024;-84
2024/03/04 04:47:58;;;;;;;114.80;50.50;;;;;;;6.63;100.00;99822.48;213582;1288;140201;-84
2024/03/04 04:52:59;;;;;;;108.30;49.70;;;;;;;6.56;100.00;99825.34;214196;1287;138959;-84
2024/03/04 04:58:00;;;;;;;83.10;45.40;;;;;;;6.50;100.00;99825.31;214070;1288;140216;-85
2024/03/04 05:03:00;;;;;;;108.20;49.10;;;;;;;6.44;100.00;99830.04;214438;1288;139156;-85
2024/03/04 05:08:00;;;;;;;107.80;52.00;;;;;;;6.39;100.00;99830.10;213602;1288;140534;-85
2024/03/04 05:13:01;;;;;;;93.60;46.30;;;;;;;6.33;100.00;99831.64;214050;1286;98135;-85
2024/03/04 05:18:01;;;;;;;98.20;46.90;;;;;;;6.28;100.00;99831.06;214747;1285;139983;-85
2024/03/04 05:23:02;;;;;;;122.00;52.70;;;;;;;6.21;100.00;99831.10;214411;1290;140189;-85
2024/03/04 05:28:02;;;;;;;79.80;43.20;;;;;;;6.14;100.00;99836.42;213608;1288;141561;-86
2024/03/04 05:33:03;;;;;;;85.90;44.40;;;;;;;6.09;100.00;99846.70;214202;1286;138849;-85
2024/03/04 05:38:05;;;;;;;81.30;41.30;;;;;;;6.03;100.00;99845.58;213556;1286;140022;-86
2024/03/04 05:43:06;;;;;;;86.40;42.50;;;;;;;5.98;100.00;99855.55;214027;1288;99395;-85
2024/03/04 05:48:07;;;;;;;71.30;41.20;;;;;;;5.94;100.00;99856.55;213514;1286;140253;-85
2024/03/04 05:53:07;;;;;;;82.80;41.90;;;;;;;5.91;100.00;99863.05;214097;1284;139602;-85
2024/03/04 05:58:09;;;;;;;72.60;40.60;;;;;;;5.87;100.00;99864.14;213534;1286;140715;-85
2024/03/04 06:03:11;;;;;;;67.80;37.20;;;;;;;5.85;100.00;99868.77;214218;1285;139826;-85
2024/03/04 06:08:11;;;;;;;65.70;37.20;;;;;;;5.82;100.00;99871.99;213689;1286;140319;-85
2024/03/04 06:13:12;;;;;;;66.10;37.30;;;;;;;5.82;100.00;99887.20;214462;1290;98094;-85
2024/03/04 06:18:13;;;;;;;68.60;38.80;;;;;;;5.82;100.00;99891.34;214391;1286;139813;-85
2024/03/04 06:23:14;;;;;;;67.30;36.80;;;;;;;5.84;100.00;99892.54;214688;1288;138912;-84
2024/03/04 06:28:14;;;;;;;68.40;36.80;;;;;;;5.89;100.00;99902.31;213811;1286;140117;-83
2024/03/04 06:33:15;;;;;;;62.90;34.20;;;;;;;5.93;100.00;99899.84;214253;1286;139033;-85
2024/03/04 06:38:15;;;;;;;70.60;37.30;;;;;;;5.98;100.00;99905.40;213778;1285;140511;-85
2024/03/04 06:43:16;;;;;;;64.70;35.50;;;;;;;6.07;100.00;99913.09;214580;1288;99295;-85
2024/03/04 06:48:16;;;;;;;63.70;35.20;;;;;;;6.17;100.00;99917.73;213665;1286;139852;-84
2024/03/04 06:53:17;;;;;;;64.90;36.60;;;;;;;6.25;100.00;99922.67;213918;1287;139253;-85
2024/03/04 06:58:17;;;;;;;56.30;33.20;;;;;;;6.29;100.00;99928.52;213748;1286;140291;-87
2024/03/04 07:03:18;;;;;;;59.30;32.50;;;;;;;6.36;100.00;99933.81;214007;1288;139323;-84
2024/03/04 07:08:18;;;;;;;60.00;32.70;;;;;;;6.47;100.00;99938.10;213763;1288;140284;-86
2024/03/04 07:13:19;;;;;;;57.30;31.00;;;;;;;6.59;100.00;99939.95;214448;1288;98000;-87
2024/03/04 07:18:19;;;;;;;56.10;29.30;;;;;;;6.65;100.00;99945.38;213402;1288;145150;-87
2024/03/04 07:23:19;;;;;;;54.80;29.10;;;;;;;6.68;100.00;99944.52;215943;1288;139810;-84
2024/03/04 07:28:20;;;;;;;50.50;27.00;;;;;;;6.71;100.00;99950.35;213882;1286;139140;-86
2024/03/04 07:33:20;;;;;;;50.50;26.50;;;;;;;6.69;100.00;99951.18;214176;1285;140470;-87
2024/03/04 07:38:21;;;;;;;55.40;28.30;;;;;;;6.68;100.00;99948.66;213815;1284;142553;-85
2024/03/04 07:43:21;;;;;;;44.00;25.10;;;;;;;6.65;100.00;99946.66;214285;1285;98045;-85
2024/03/04 07:48:22;;;;;;;43.70;26.00;;;;;;;6.65;100.00;99950.80;213579;1288;141583;-85
2024/03/04 07:53:22;;;;;;;43.80;25.10;;;;;;;6.69;100.00;99947.19;214490;1288;139085;-86
2024/03/04 07:58:23;;;;;;;45.30;26.30;;;;;;;6.71;100.00;99951.52;213604;1288;140669;-86
2024/03/04 08:03:23;;;;;;;49.90;25.90;;;;;;;6.74;100.00;99954.95;213811;1286;139002;-86
2024/03/04 08:08:24;;;;;;;45.90;25.80;;;;;;;6.82;100.00;99961.34;213395;1290;140612;-87
2024/03/04 08:13:26;;;;;;;42.20;23.10;;;;;;;6.88;100.00;99959.49;214166;1289;98087;-86
2024/03/04 08:18:28;;;;;;;44.50;25.50;;;;;;;6.93;100.00;99963.11;213355;1288;140433;-86
2024/03/04 08:23:28;;;;;;;40.70;24.20;;;;;;;7.00;100.00;99961.52;215203;1288;138839;-86
2024/03/04 08:28:29;;;;;;;40.60;24.30;;;;;;;7.13;100.00;99961.98;213764;1288;196461;-87
2024/03/04 08:33:29;;;;;;;41.00;23.00;;;;;;;7.24;100.00;99965.69;213859;1287;139380;-86
2024/03/04 08:38:29;;;;;;;38.70;22.20;;;;;;;7.39;100.00;99973.83;213211;1291;140185;-86
2024/03/04 08:43:30;;;;;;;40.00;23.20;;;;;;;7.52;100.00;99984.69;213786;1287;98076;-87
2024/03/04 08:48:30;;;;;;;44.70;24.00;;;;;;;7.60;100.00;99983.81;213716;1285;141125;-87
2024/03/04 08:53:33;;;;;;;43.80;24.60;;;;;;;7.68;100.00;99985.95;214238;1285;138783;-87
2024/03/04 08:58:33;;;;;;;42.90;25.20;;;;;;;7.83;100.00;99993.23;213705;1288;140099;-85
2024/03/04 09:03:33;;;;;;;43.30;25.50;;;;;;;8.12;100.00;99992.48;214295;1285;139628;-85
2024/03/04 09:08:34;;;;;;;50.40;27.40;;;;;;;8.43;100.00;99997.30;213828;1285;140093;-86
2024/03/04 09:13:35;;;;;;;40.80;25.90;;;;;;;8.73;100.00;99996.57;214307;1285;98735;-86
2024/03/04 09:18:40;;;;;;;42.20;23.90;;;;;;;9.12;100.00;100001.54;213575;1286;140255;-86
2024/03/04 09:23:40;;;;;;;45.50;26.00;;;;;;;9.36;100.00;99999.72;213956;1290;139196;-87
2024/03/04 09:28:51;;;;;;;41.80;24.30;;;;;;;9.69;100.00;99998.75;214696;1288;140194;-86
2024/03/04 09:33:52;;;;;;;38.80;24.60;;;;;;;10.28;100.00;99998.77;214122;1284;139971;-87
2024/03/04 09:38:53;;;;;;;40.80;24.90;;;;;;;10.48;100.00;99997.54;213822;1288;140417;-87
2024/03/04 09:43:53;;;;;;;43.70;26.90;;;;;;;10.90;100.00;100006.02;214219;1286;139691;-87
2024/03/04 09:48:54;;;;;;;45.30;24.30;;;;;;;11.33;100.00;100004.15;213911;1285;140623;-87
2024/03/04 09:53:57;;;;;;;39.30;24.20;;;;;;;11.45;100.00;100005.18;214285;1284;139298;-88
2024/03/04 09:58:57;;;;;;;41.30;25.90;;;;;;;11.65;100.00;100004.89;213465;1284;140516;-87
2024/03/04 10:03:59;;;;;;;37.30;23.60;;;;;;;11.86;100.00;100004.10;213759;1286;139645;-87
2024/03/04 10:08:59;;;;;;;43.70;25.10;;;;;;;12.10;99.36;100001.15;213350;1286;140755;-87
2024/03/04 10:14:01;;;;;;;39.60;25.40;;;;;;;12.14;97.61;100008.71;213892;1286;140636;-87
2024/03/04 10:19:03;;;;;;;40.00;25.20;;;;;;;12.18;99.41;100011.14;213475;1286;140422;-86
2024/03/04 10:24:08;;;;;;;40.30;25.40;;;;;;;12.37;96.25;100016.68;213677;1291;139035;-86
2024/03/04 10:29:08;;;;;;;40.30;24.60;;;;;;;12.33;93.49;100022.78;215193;1286;139524;-87
2024/03/04 10:34:09;;;;;;;41.20;26.40;;;;;;;12.18;95.18;100019.81;213662;1290;139297;-88
2024/03/04 10:39:16;;;;;;;39.90;25.30;;;;;;;12.41;95.94;100017.73;213304;1286;141833;-86
2024/03/04 10:44:26;;;;;;;42.70;25.40;;;;;;;12.40;93.22;100012.67;213821;1287;139280;-86
2024/03/04 10:49:28;;;;;;;48.50;25.80;;;;;;;12.26;92.24;100015.08;213264;1286;140855;-87
2024/03/04 10:54:29;;;;;;;42.90;26.70;;;;;;;12.31;93.51;100011.91;214299;1285;139018;-85
2024/03/04 10:59:37;;;;;;;57.80;27.30;;;;;;;12.14;92.10;100016.05;213463;1285;140069;-85
2024/03/04 11:04:42;;;;;;;44.90;28.00;;;;;;;12.00;92.63;100017.88;214049;1286;139814;-87
2024/03/04 11:09:48;;;;;;;48.60;27.60;;;;;;;12.02;92.97;100013.55;213320;1285;141036;-86
2024/03/04 11:15:00;;;;;;;48.90;27.90;;;;;;;12.00;93.93;100015.20;213881;1286;139395;-85
2024/03/04 11:20:03;;;;;;;43.70;27.30;;;;;;;11.90;92.48;100014.73;213229;1286;140331;-86
2024/03/04 11:25:04;;;;;;;50.70;26.40;;;;;;;11.94;93.78;100014.56;213841;1287;119918;-87
2024/03/04 11:30:07;;;;;;;45.00;27.10;;;;;;;11.88;92.88;100019.07;214497;1285;140265;-89
2024/03/04 11:35:10;;;;;;;42.20;25.50;;;;;;;11.87;93.71;100021.90;214310;1287;139443;-86
2024/03/04 11:40:13;;;;;;;43.90;28.60;;;;;;;11.73;92.88;100021.85;213291;1286;140980;-85
2024/03/04 11:45:20;;;;;;;47.40;28.50;;;;;;;11.71;94.33;100010.02;213786;1286;139590;-86
2024/03/04 11:50:42;;;;;;;66.00;33.30;;;;;;;11.80;94.00;100011.27;213447;1285;140481;-86
2024/03/04 11:55:43;;;;;;;59.40;31.20;;;;;;;11.87;93.45;100018.05;214287;1285;97998;-86
2024/03/04 12:00:44;;;;;;;49.00;28.40;;;;;;;11.88;94.94;100025.13;213738;1285;140459;-85
2024/03/04 12:05:47;;;;;;;49.60;28.70;;;;;;;12.18;96.30;100023.67;214137;1286;140016;-86
2024/03/04 12:10:50;;;;;;;42.40;26.80;;;;;;;12.46;94.72;100023.61;213112;1286;140465;-86
2024/03/04 12:15:56;;;;;;;42.90;26.50;;;;;;;12.50;93.28;100027.30;213850;1286;139200;-85
2024/03/04 12:20:58;;;;;;;44.00;25.80;;;;;;;12.45;93.69;100030.38;213514;1288;140413;-87
2024/03/04 12:26:14;;;;;;;47.30;27.50;;;;;;;12.43;92.05;100035.45;213867;1287;139376;-88
2024/03/04 12:31:15;;;;;;;50.60;28.20;;;;;;;12.11;91.42;100039.38;214663;1284;140025;-87
2024/03/04 12:36:16;;;;;;;57.30;29.60;;;;;;;11.95;92.82;100047.98;215508;1288;141005;-87
2024/03/04 12:41:19;;;;;;;49.60;29.40;;;;;;;11.78;93.67;100039.32;213841;1287;139642;-88
2024/03/04 12:46:21;;;;;;;50.00;30.10;;;;;;;11.64;93.19;100044.52;213444;1286;141116;-87
2024/03/04 12:51:22;;;;;;;50.10;31.40;;;;;;;11.41;94.06;100044.61;214235;1285;139799;-88
2024/03/04 12:56:22;;;;;;;58.30;33.50;;;;;;;11.25;95.04;100046.48;213818;1285;140904;-87
2024/03/04 13:01:26;;;;;;;53.90;33.40;;;;;;;11.11;94.82;100044.94;214382;1284;97905;-86
2024/03/04 13:06:27;;;;;;;53.20;30.60;;;;;;;11.02;95.96;100046.73;213741;1286;140189;-87
2024/03/04 13:11:28;;;;;;;58.90;34.00;;;;;;;10.96;95.68;100048.77;214008;1285;139251;-89
2024/03/04 13:16:28;;;;;;;55.50;34.00;;;;;;;10.87;96.69;100038.42;213863;1286;140527;-87
2024/03/04 13:21:28;;;;;;;55.50;33.20;;;;;;;10.84;97.26;100033.86;213824;1287;139364;-86
2024/03/04 13:26:29;;;;;;;51.50;32.20;;;;;;;10.87;97.88;100038.50;213750;1284;140573;-86
2024/03/04 13:31:30;;;;;;;55.60;31.20;;;;;;;10.84;98.54;100042.81;214440;1285;99318;-86
2024/03/04 13:36:30;;;;;;;48.60;30.40;;;;;;;10.80;97.58;100046.57;215662;1285;139959;-87
2024/03/04 13:41:31;;;;;;;50.10;30.40;;;;;;;10.66;98.77;100045.02;214442;1285;139107;-86
2024/03/04 13:46:31;;;;;;;48.70;30.00;;;;;;;10.64;98.65;100047.29;213727;1285;141858;-86
2024/03/04 13:51:32;;;;;;;50.30;30.20;;;;;;;10.57;98.54;100043.02;213990;1286;139312;-87
2024/03/04 13:56:33;;;;;;;51.50;30.40;;;;;;;10.52;97.98;100046.99;213335;1285;140852;-86
2024/03/04 14:01:33;;;;;;;48.80;28.60;;;;;;;10.43;98.61;100051.19;213849;1287;98128;-85
2024/03/04 14:06:34;;;;;;;49.90;27.20;;;;;;;10.43;99.62;100059.92;213234;1286;140481;-87
2024/03/04 14:11:34;;;;;;;50.60;27.70;;;;;;;10.38;99.44;100059.81;214102;1287;139158;-88
2024/03/04 14:16:38;;;;;;;53.70;29.10;;;;;;;10.27;99.63;100060.21;213355;1286;140912;-85
2024/03/04 14:21:38;;;;;;;45.40;27.30;;;;;;;10.22;100.00;100060.58;214068;1284;139281;-87
2024/03/04 14:26:38;;;;;;;48.20;26.30;;;;;;;10.16;100.00;100064.46;213875;1286;141254;-87
2024/03/04 14:31:39;;;;;;;42.20;26.20;;;;;;;10.14;100.00;100063.73;214514;1285;98965;-86
2024/03/04 14:36:39;;;;;;;48.90;28.60;;;;;;;10.20;100.00;100062.13;214638;1283;140429;-86
2024/03/04 14:41:40;;;;;;;47.90;29.20;;;;;;;10.20;100.00;100066.70;214345;1285;140044;-86
2024/03/04 14:46:41;;;;;;;43.00;27.20;;;;;;;10.09;100.00;100067.09;213696;1288;141268;-86
2024/03/04 14:51:41;;;;;;;51.90;30.20;;;;;;;9.97;100.00;100067.68;214139;1284;139917;-85
2024/03/04 14:56:42;;;;;;;52.30;32.30;;;;;;;9.85;100.00;100069.93;213745;1288;140220;-86
2024/03/04 15:01:42;;;;;;;68.10;36.70;;;;;;;9.69;100.00;100074.04;214270;1284;99176;-86
2024/03/04 15:06:44;;;;;;;51.30;31.80;;;;;;;9.62;100.00;100080.10;214106;1285;140227;-86
2024/03/04 15:11:46;;;;;;;66.20;39.90;;;;;;;9.57;100.00;100083.59;214216;1284;138944;-85
2024/03/04 15:16:48;;;;;;;57.10;32.20;;;;;;;9.49;100.00;100086.10;213884;1285;140320;-86
2024/03/04 15:21:49;;;;;;;50.00;31.20;;;;;;;9.40;100.00;100084.04;214219;1285;138980;-86
2024/03/04 15:26:49;;;;;;;57.40;31.70;;;;;;;9.33;100.00;100082.41;214037;1285;140476;-86
2024/03/04 15:31:49;;;;;;;56.00;31.90;;;;;;;9.27;100.00;100083.75;214479;1285;97967;-86
2024/03/04 15:36:50;;;;;;;52.60;30.70;;;;;;;9.15;100.00;100090.51;213778;1288;140182;-84
2024/03/04 15:41:50;;;;;;;60.50;32.80;;;;;;;9.07;100.00;100097.55;215704;1285;139741;-88
2024/03/04 15:46:50;;;;;;;59.50;31.20;;;;;;;9.01;100.00;100101.34;214222;1285;140869;-86
2024/03/04 15:51:51;;;;;;;60.90;33.00;;;;;;;8.93;100.00;100108.05;214506;1288;139209;-85
2024/03/04 15:56:51;;;;;;;51.80;29.50;;;;;;;8.88;100.00;100113.48;213801;1285;140187;-86
2024/03/04 16:01:52;;;;;;;53.50;29.90;;;;;;;8.83;100.00;100118.12;214327;1285;139807;-88
2024/03/04 16:06:54;;;;;;;53.60;32.60;;;;;;;8.74;100.00;100124.73;214106;1288;140506;-87
2024/03/04 16:11:54;;;;;;;54.80;31.40;;;;;;;8.62;100.00;100134.23;214306;1286;139542;-87
2024/03/04 16:16:57;;;;;;;59.20;32.10;;;;;;;8.54;100.00;100141.23;213836;1288;140110;-86
2024/03/04 16:21:57;;;;;;;55.20;31.60;;;;;;;8.50;100.00;100136.71;214437;1285;139019;-86
2024/03/04 16:26:58;;;;;;;51.30;29.00;;;;;;;8.45;100.00;100143.61;213699;1285;140850;-86
2024/03/04 16:31:58;;;;;;;52.30;28.70;;;;;;;8.35;100.00;100153.09;214459;1285;139081;-87
2024/03/04 16:37:01;;;;;;;52.10;29.00;;;;;;;8.24;100.00;100158.32;214187;1285;142019;-88
2024/03/04 16:42:02;;;;;;;48.40;28.20;;;;;;;8.10;100.00;100164.79;216142;1285;139543;-86
2024/03/04 16:47:03;;;;;;;59.60;29.40;;;;;;;7.98;100.00;100177.98;213939;1284;140124;-87
2024/03/04 16:52:04;;;;;;;49.90;26.80;;;;;;;7.87;100.00;100183.34;214354;1285;139136;-86
2024/03/04 16:57:04;;;;;;;44.40;24.70;;;;;;;7.83;100.00;100181.78;213988;1285;140081;-86
2024/03/04 17:02:05;;;;;;;46.10;25.80;;;;;;;7.75;100.00;100180.61;214438;1288;139559;-87
2024/03/04 17:07:05;;;;;;;59.80;32.40;;;;;;;7.65;100.00;100192.11;213901;1288;140410;-86
2024/03/04 17:12:06;;;;;;;53.00;28.00;;;;;;;7.63;100.00;100192.06;213566;1286;139723;-87
2024/03/04 17:17:07;;;;;;;50.30;27.00;;;;;;;7.61;100.00;100193.59;213549;1288;140019;-88
2024/03/04 17:22:07;;;;;;;47.10;25.40;;;;;;;7.58;100.00;100195.64;214500;1285;139801;-87
2024/03/04 17:27:08;;;;;;;46.00;24.10;;;;;;;7.53;100.00;100192.02;214415;1288;140298;-88
2024/03/04 17:32:09;;;;;;;45.70;25.10;;;;;;;7.48;100.00;100196.70;214968;1288;139544;-86
2024/03/04 17:37:09;;;;;;;50.00;26.10;;;;;;;7.46;100.00;100205.79;214129;1286;140676;-87
2024/03/04 17:42:13;;;;;;;46.80;24.50;;;;;;;7.45;100.00;100204.08;215118;1285;139342;-87
2024/03/04 17:47:13;;;;;;;50.70;27.20;;;;;;;7.47;100.00;100201.45;214610;1285;140234;-88
2024/03/04 17:52:13;;;;;;;47.40;25.70;;;;;;;7.46;100.00;100208.15;214714;1284;139632;-88
2024/03/04 17:57:14;;;;;;;56.40;27.80;;;;;;;7.45;100.00;100209.77;214337;1290;140810;-85
2024/03/04 18:02:15;;;;;;;46.80;25.00;;;;;;;7.44;100.00;100211.79;214861;1287;139687;-88
2024/03/04 18:07:16;;;;;;;56.10;26.50;;;;;;;7.42;100.00;100218.63;214690;1287;140970;-87
2024/03/04 18:12:16;;;;;;;52.00;27.10;;;;;;;7.42;100.00;100221.77;214493;1292;139277;-87
2024/03/04 18:17:17;;;;;;;49.00;25.90;;;;;;;7.42;100.00;100220.90;214227;1290;141352;-88
2024/03/04 18:22:17;;;;;;;50.80;26.40;;;;;;;7.42;100.00;100229.11;214612;1287;139128;-87
2024/03/04 18:27:18;;;;;;;52.70;26.40;;;;;;;7.43;100.00;100230.54;214374;1288;140867;-87
2024/03/04 18:32:18;;;;;;;55.70;28.60;;;;;;;7.43;100.00;100224.20;215258;1288;139022;-87
2024/03/04 18:37:19;;;;;;;53.30;29.40;;;;;;;7.40;100.00;100232.91;214655;1285;140998;-90
2024/03/04 18:42:19;;;;;;;56.80;27.70;;;;;;;7.39;100.00;100230.15;214676;1284;139714;-87
2024/03/04 18:47:20;;;;;;;51.20;27.90;;;;;;;7.41;100.00;100234.17;214505;1287;140813;-87
2024/03/04 18:52:22;;;;;;;55.90;29.80;;;;;;;7.40;100.00;100238.31;214639;1290;139303;-88
2024/03/04 18:57:23;;;;;;;51.40;28.40;;;;;;;7.33;100.00;100240.27;213769;1288;140585;-89
2024/03/04 19:02:27;;;;;;;55.40;29.20;;;;;;;7.27;100.00;100239.91;214668;1284;139146;-91
2024/03/04 19:07:28;;;;;;;50.90;27.80;;;;;;;7.21;100.00;100245.41;213934;1285;140321;-87
2024/03/04 19:12:29;;;;;;;58.20;29.80;;;;;;;7.22;100.00;100248.56;214146;1284;139924;-90
2024/03/04 19:17:30;;;;;;;52.60;27.70;;;;;;;7.18;100.00;100250.67;213566;1288;140362;-87
2024/03/04 19:22:30;;;;;;;51.70;29.00;;;;;;;7.15;100.00;100252.01;213794;1290;139153;-88
2024/03/04 19:27:32;;;;;;;51.60;27.90;;;;;;;7.10;100.00;100258.29;213286;1287;141141;-88
2024/03/04 19:32:32;;;;;;;52.50;27.70;;;;;;;7.03;100.00;100260.56;214243;1286;139691;-88
2024/03/04 19:37:33;;;;;;;59.30;29.60;;;;;;;6.93;100.00;100260.98;213498;1290;141291;-88
2024/03/04 19:42:34;;;;;;;52.80;26.90;;;;;;;6.87;100.00;100263.73;214102;1288;140413;-87
2024/03/04 19:47:35;;;;;;;51.50;27.90;;;;;;;6.82;100.00;100265.72;216056;1288;140082;-86
2024/03/04 19:52:35;;;;;;;52.40;26.20;;;;;;;6.79;100.00;100261.27;214064;1288;140258;-86
2024/03/04 19:57:36;;;;;;;55.80;27.70;;;;;;;6.75;100.00;100262.73;213987;1285;140265;-87
2024/03/04 20:02:37;;;;;;;54.40;28.20;;;;;;;6.72;100.00;100261.27;214214;1290;139332;-86
2024/03/04 20:07:39;;;;;;;51.60;26.80;;;;;;;6.73;100.00;100265.02;213544;1287;140140;-86
2024/03/04 20:12:43;;;;;;;62.30;29.80;;;;;;;6.72;100.00;100261.43;214234;1288;140134;-88
2024/03/04 20:17:44;;;;;;;59.00;27.50;;;;;;;6.71;100.00;100262.17;213561;1288;140745;-87
2024/03/04 20:22:44;;;;;;;68.20;31.30;;;;;;;6.69;100.00;100258.76;213922;1287;139339;-88
2024/03/04 20:27:45;;;;;;;60.00;29.00;;;;;;;6.63;100.00;100261.29;213251;1290;222632;-86
2024/03/04 20:32:45;;;;;;;70.00;32.70;;;;;;;6.59;100.00;100261.12;213716;1286;139835;-84
2024/03/04 20:37:46;;;;;;;63.00;30.40;;;;;;;6.56;100.00;100266.65;213530;1285;141002;-84
2024/03/04 20:42:46;;;;;;;65.00;30.90;;;;;;;6.55;100.00;100269.77;213798;1290;139430;-85
2024/03/04 20:47:46;;;;;;;60.40;29.60;;;;;;;6.52;100.00;100265.55;215622;1288;140145;-84
2024/03/04 20:52:47;;;;;;;69.50;30.50;;;;;;;6.49;100.00;100265.79;213596;1285;139266;-84
2024/03/04 20:58:01;;;;;;;64.10;29.00;;;;;;;6.49;100.00;100269.37;213891;1288;140269;-85
2024/03/04 21:03:03;;;;;;;60.30;28.90;;;;;;;6.47;100.00;100268.93;214260;1288;139101;-86
2024/03/04 21:08:05;;;;;;;66.20;28.40;;;;;;;6.45;100.00;100266.38;213859;1288;140345;-85
2024/03/04 21:13:06;;;;;;;58.00;28.20;;;;;;;6.44;100.00;100269.00;214377;1288;99365;-85
2024/03/04 21:18:06;;;;;;;55.30;28.10;;;;;;;6.42;100.00;100270.76;214122;1288;140273;-84
2024/03/04 21:23:06;;;;;;;47.60;23.80;;;;;;;6.42;100.00;100272.71;214189;1286;139248;-83
2024/03/04 21:28:07;;;;;;;53.60;24.90;;;;;;;6.38;100.00;100275.13;213736;1285;140709;-84
2024/03/04 21:33:07;;;;;;;51.00;23.50;;;;;;;6.34;100.00;100270.70;214933;1288;139233;-86
2024/03/04 21:38:08;;;;;;;52.60;27.10;;;;;;;6.32;100.00;100271.52;214186;1288;139948;-85
2024/03/04 21:43:10;;;;;;;53.20;24.00;;;;;;;6.28;100.00;100272.27;215156;1286;98931;-87
2024/03/04 21:48:11;;;;;;;53.30;25.60;;;;;;;6.26;100.00;100268.26;216407;1288;139340;-86
2024/03/04 21:53:16;;;;;;;49.40;24.20;;;;;;;6.26;100.00;100270.12;214623;1286;139244;-86
2024/03/04 21:58:17;;;;;;;56.70;25.10;;;;;;;6.26;100.00;100269.34;214051;1288;140571;-87
2024/03/04 22:03:18;;;;;;;53.00;25.00;;;;;;;6.24;100.00;100268.76;214232;1289;139744;-86
2024/03/04 22:08:18;;;;;;;55.70;26.30;;;;;;;6.24;100.00;100266.94;213693;1289;140202;-86
2024/03/04 22:13:18;;;;;;;49.80;25.20;;;;;;;6.20;100.00;100267.94;214868;1286;97945;-86
2024/03/04 22:18:20;;;;;;;55.60;25.40;;;;;;;6.19;100.00;100268.46;214127;1285;140520;-86
2024/03/04 22:23:21;;;;;;;52.90;24.60;;;;;;;6.19;100.00;100263.69;214682;1285;138942;-87